createdAt,value
2023-03-22T00:00:05.953Z,104.60
2023-03-22T00:05:31.549Z,103.70
2023-03-22T00:10:38.507Z,115.30
2023-03-22T00:15:49.380Z,105.30
2023-03-22T00:20:56.542Z,107.90
2023-03-22T00:26:01.987Z,96.60
2023-03-22T00:31:09.109Z,97.40
2023-03-22T00:36:14.884Z,102.20
2023-03-22T00:41:23.059Z,95.70
2023-03-22T00:46:28.524Z,96.40
2023-03-22T00:51:34.153Z,99.60
2023-03-22T00:56:40.221Z,96.40
2023-03-22T01:01:51.516Z,76.00
2023-03-22T01:07:03.585Z,91.60
2023-03-22T01:12:09.325Z,103.50
2023-03-22T01:17:15.192Z,96.20
2023-03-22T01:22:21.186Z,102.50
2023-03-22T01:27:26.896Z,88.00
2023-03-22T01:32:32.475Z,83.10
2023-03-22T01:37:38.089Z,85.30
2023-03-22T01:42:43.980Z,90.10
2023-03-22T01:47:59.344Z,94.80
2023-03-22T01:53:06.864Z,92.80
2023-03-22T01:58:18.000Z,88.80
2023-03-22T02:03:36.858Z,85.40
2023-03-22T02:08:42.913Z,85.70
2023-03-22T02:14:12.840Z,96.90
2023-03-22T02:20:18.442Z,95.30
2023-03-22T02:25:48.663Z,79.00
2023-03-22T02:31:31.797Z,76.60
2023-03-22T02:37:06.458Z,87.10
2023-03-22T02:42:27.607Z,91.30
2023-03-22T02:47:41.648Z,90.90
2023-03-22T02:52:52.724Z,85.20
2023-03-22T02:58:03.146Z,79.40
2023-03-22T03:03:11.691Z,116.80
2023-03-22T03:08:20.423Z,99.20
2023-03-22T03:13:26.486Z,90.10
2023-03-22T03:18:44.802Z,74.30
2023-03-22T03:23:59.349Z,79.10
2023-03-22T03:29:11.851Z,108.90
2023-03-22T03:34:23.979Z,75.60
2023-03-22T03:39:33.644Z,69.60
2023-03-22T03:44:39.953Z,91.20
2023-03-22T03:49:46.105Z,109.40
2023-03-22T03:54:51.553Z,78.50
2023-03-22T04:00:00.220Z,71.90
2023-03-22T04:05:39.079Z,88.10
2023-03-22T04:10:48.762Z,83.70
2023-03-22T04:15:58.179Z,64.60
2023-03-22T04:21:05.473Z,89.10
2023-03-22T04:26:18.812Z,86.60
2023-03-22T04:31:45.306Z,64.50
2023-03-22T04:37:02.690Z,63.70
2023-03-22T04:42:27.217Z,68.70
2023-03-22T04:47:50.440Z,69.20
2023-03-22T04:52:58.451Z,58.40
2023-03-22T04:58:04.494Z,49.90
2023-03-22T05:03:10.405Z,53.70
2023-03-22T05:08:19.956Z,83.60
2023-03-22T05:13:28.073Z,59.90
2023-03-22T05:18:34.509Z,53.40
2023-03-22T05:23:40.578Z,50.10
2023-03-22T05:28:46.501Z,55.80
2023-03-22T05:33:58.193Z,45.50
2023-03-22T05:39:06.135Z,49.00
2023-03-22T05:44:12.175Z,49.50
2023-03-22T05:49:22.098Z,46.80
2023-03-22T05:54:28.501Z,38.60
2023-03-22T05:59:34.219Z,41.90
2023-03-22T06:04:41.613Z,45.80
2023-03-22T06:09:51.935Z,36.60
2023-03-22T06:15:01.338Z,39.50
2023-03-22T06:20:12.211Z,44.70
2023-03-22T06:25:20.734Z,42.60
2023-03-22T06:30:27.389Z,29.20
2023-03-22T06:36:00.776Z,25.10
2023-03-22T06:41:11.784Z,22.70
2023-03-22T06:46:17.821Z,22.20
2023-03-22T06:51:31.866Z,19.40
2023-03-22T06:56:37.420Z,16.00
2023-03-22T07:01:42.998Z,14.10
2023-03-22T07:06:49.278Z,18.40
2023-03-22T07:11:54.967Z,15.30
2023-03-22T07:17:01.511Z,12.20
2023-03-22T07:22:08.042Z,12.60
2023-03-22T07:27:14.661Z,12.30
2023-03-22T07:32:20.779Z,10.40
2023-03-22T07:37:40.658Z,11.30
2023-03-22T07:42:55.933Z,11.70
2023-03-22T07:48:16.133Z,12.50
2023-03-22T07:53:40.541Z,11.90
2023-03-22T07:58:46.163Z,10.10
2023-03-22T08:03:51.977Z,12.60
2023-03-22T08:09:11.571Z,13.30
2023-03-22T08:14:22.201Z,13.50
2023-03-22T08:19:33.809Z,12.60
2023-03-22T08:24:39.638Z,11.60
2023-03-22T08:29:48.822Z,11.20
2023-03-22T08:34:55.324Z,10.00
2023-03-22T08:40:00.944Z,9.60
2023-03-22T08:45:18.302Z,12.30
2023-03-22T08:50:30.390Z,11.00
2023-03-22T08:55:45.735Z,14.70
2023-03-22T09:00:52.190Z,15.00
2023-03-22T09:06:10.726Z,29.20
2023-03-22T09:11:18.245Z,18.50
2023-03-22T09:16:25.199Z,23.60
2023-03-22T09:21:31.006Z,15.60
2023-03-22T09:26:46.800Z,16.90
2023-03-22T09:31:54.375Z,19.00
2023-03-22T09:37:04.257Z,18.40
2023-03-22T09:42:31.451Z,18.90
2023-03-22T09:47:45.285Z,19.20
2023-03-22T09:52:52.898Z,17.00
2023-03-22T09:58:09.452Z,17.70
2023-03-22T10:03:29.463Z,17.10
2023-03-22T10:08:56.574Z,17.60
2023-03-22T10:14:15.340Z,15.20
2023-03-22T10:19:27.121Z,18.50
2023-03-22T10:24:35.700Z,15.20
2023-03-22T10:29:44.486Z,20.50
2023-03-22T10:34:49.894Z,16.50
2023-03-22T10:39:58.768Z,18.20
2023-03-22T10:45:06.922Z,18.20
2023-03-22T10:50:18.417Z,16.20
2023-03-22T10:55:25.858Z,14.90
2023-03-22T11:00:31.510Z,18.80
2023-03-22T11:05:37.121Z,16.40
2023-03-22T11:10:49.713Z,12.90
2023-03-22T11:15:59.891Z,14.40
2023-03-22T11:21:10.511Z,15.30
2023-03-22T11:31:50.968Z,13.90
2023-03-22T11:36:59.353Z,15.60
2023-03-22T11:42:07.424Z,14.10
2023-03-22T11:47:14.904Z,18.10
2023-03-22T11:52:24.292Z,16.60
2023-03-22T11:57:34.252Z,18.40
2023-03-22T12:02:46.499Z,18.10
2023-03-22T12:07:59.304Z,14.40
2023-03-22T12:13:10.400Z,16.80
2023-03-22T12:20:47.592Z,14.60
2023-03-22T12:25:58.729Z,16.00
2023-03-22T12:31:08.580Z,14.80
2023-03-22T12:36:19.374Z,16.80
2023-03-22T12:41:31.419Z,18.00
2023-03-22T12:46:45.118Z,12.90
2023-03-22T12:51:52.280Z,14.90
2023-03-22T12:56:58.162Z,14.70
2023-03-22T13:02:12.507Z,13.30
2023-03-22T13:07:35.636Z,14.40
2023-03-22T13:12:41.229Z,12.90
2023-03-22T13:17:47.062Z,14.00
2023-03-22T13:23:09.724Z,14.60
2023-03-22T13:28:27.178Z,10.00
2023-03-22T13:33:35.389Z,10.10
2023-03-22T13:38:42.933Z,11.80
2023-03-22T13:43:50.553Z,10.30
2023-03-22T13:49:12.762Z,14.30
2023-03-22T13:54:26.309Z,15.10
2023-03-22T14:00:08.831Z,13.20
2023-03-22T14:05:22.206Z,12.70
2023-03-22T14:10:33.978Z,14.80
2023-03-22T14:15:45.266Z,17.80
2023-03-22T14:20:55.035Z,14.10
